Sacramento (SMF/KSMF)

Information

Location
Sacramento, CA
Local Time
16:22 / 4:22 pm
GMT Time
00:22 / 12:22 am
Gates
Unassigned
No FAA reported delays
METAR KSMF 222353Z 28017G31KT 10SM FEW075 BKN190 11/02 A3015 RMK AO2 PK WND 28031/2350 SLP208 T01110017 10133 20100 56016
TAF KSMF 222336Z 2300/2324 25007KT P6SM VCTS BKN040CB OVC100 TEMPO 2300/2303 4SM SHRA OVC040 FM230400 25006KT P6SM BKN040 FM231400 32003KT 3SM BCFG BKN050 FM231700 33011KT P6SM SKC
  • No charts available